Flight Track Log - Related Links

Times and Time Zones

All times are in EDT time to prevent confusion due to time zone crossing. See the SWA2258 flight status page for this flight to view local times or setup timezone preferences in your user account.

Time Position Orientation Groundspeed Altitude Reporting Facility
EDT Latitude Longitude Course Direction KTS MPH feet Rate Location/Type
Sat 11:50:37 AM 28.3580 -81.5940 276° West 334 384 11,000  Level FlightAware ADS-B
Sat 11:51:29 AM 28.3650 -81.6930 275° West 348 400 13,500 2,804 Climbing FlightAware ADS-B
Sat 11:52:09 AM 28.3680 -81.7700 273° West 363 418 15,300 1,350 Climbing FlightAware ADS-B
Sat 11:52:49 AM 28.3710 -81.8350 273° West 363 418 15,300 2,211 Level FlightAware ADS-B
Sat 11:53:24 AM 28.3580 -81.9160 260° West 18,400 3,405 Climbing FlightAware ADS-B
Sat 11:54:03 AM 28.3440 -81.9750 255° West 388 447 19,500 1,697 Climbing FlightAware ADS-B
Sat 11:55:03 AM 28.3190 -82.0840 255° West 401 461 21,200 1,788 Climbing FlightAware ADS-B
Sat 11:55:47 AM 28.2980 -82.1720 255° West 408 470 22,600 1,683 Climbing FlightAware ADS-B
Sat 11:56:25 AM 28.2770 -82.2620 255° West 422 486 23,500 1,683 Climbing FlightAware ADS-B
Sat 11:57:09 AM 28.2500 -82.3810 256° West 435 501 24,900 1,685 Climbing FlightAware ADS-B
Sat 11:57:54 AM 28.2260 -82.4820 255° West 440 506 26,000 1,500 Climbing FlightAware ADS-B
Sat 11:58:29 AM 28.2070 -82.5600 255° West 444 511 26,900 1,371 Climbing FlightAware ADS-B
Sat 11:59:04 AM 28.1880 -82.6400 255° West 450 518 27,600 1,183 Climbing FlightAware ADS-B
Sat 11:59:40 AM 28.1720 -82.7080 255° West 454 522 28,300 1,013 Climbing FlightAware ADS-B
Sat 12:00:21 PM 28.1560 -82.7770 255° West 455 524 28,900 743 Climbing FlightAware ADS-B
Sat 12:01:25 PM 28.1220 -82.9230 255° West 461 531 29,600 1,421 Climbing FlightAware ADS-B
Sat 12:02:15 PM 28.0830 -83.0810 254° West 463 533 31,600 2,000 Climbing FlightAware ADS-B
Sat 12:02:40 PM 28.0690 -83.1380 254° West 463 533 32,100 1,219 Climbing FlightAware ADS-B
Sat 12:03:19 PM 28.0470 -83.2330 255° West 463 533 32,900 1,188 Climbing FlightAware ADS-B
Sat 12:04:16 PM 28.0250 -83.3520 258° West 462 532 34,000 1,056 Climbing FlightAware ADS-B
Sat 12:05:07 PM 28.0390 -83.4590 278° West 460 529 34,800 1,159 Climbing FlightAware ADS-B
Sat 12:05:44 PM 28.0620 -83.5760 283° West 456 525 35,700 1,000 Climbing FlightAware ADS-B
Sat 12:06:19 PM 28.0790 -83.6560 284° West 453 521 36,000 222 Climbing FlightAware ADS-B
Sat 12:07:05 PM 28.1000 -83.7620 283° West 454 522 36,000  Level FlightAware ADS-B
Sat 12:07:49 PM 28.1190 -83.8650 282° West 451 519 36,000  Level FlightAware ADS-B
Sat 12:08:32 PM 28.1370 -83.9550 283° West 451 519 36,000  Level FlightAware ADS-B
Sat 12:09:37 PM 28.1590 -84.0710 282° West 449 517 36,000  Level FlightAware ADS-B
Sat 12:10:52 PM 28.1860 -84.2180 282° West 449 517 36,000  Level FlightAware ADS-B
Sat 12:11:28 PM 28.2000 -84.2880 283° West 449 517 36,000  Level FlightAware ADS-B
Sat 12:12:16 PM 28.2170 -84.3820 282° West 449 517 36,000  Level FlightAware ADS-B
Sat 12:12:52 PM 28.2300 -84.4530 282° West 449 517 36,000  Level FlightAware ADS-B
Sat 12:13:40 PM 28.2740 -84.6760 283° West 451 519 36,000  Level FlightAware ADS-B
Sat 12:14:18 PM 28.2890 -84.7540 282° West 451 519 36,000  Level FlightAware ADS-B
Sat 12:19:56 PM 28.4360 -85.5550 282° West 465 535 36,000  Level FlightAware ADS-B
Sat 12:20:38 PM 28.4550 -85.6600 282° West 465 535 36,000  Level FlightAware ADS-B
Sat 12:21:18 PM 28.4710 -85.7530 281° West 463 533 36,000  Level FlightAware ADS-B
Sat 12:22:02 PM 28.4880 -85.8480 282° West 463 533 36,000  Level FlightAware ADS-B
Sat 12:22:46 PM 28.5030 -85.9370 281° West 463 533 36,000  Level FlightAware ADS-B
Sat 12:23:28 PM 28.5190 -86.0250 282° West 461 531 36,000  Level FlightAware ADS-B
Sat 12:24:05 PM 28.5320 -86.1000 281° West 461 531 36,000  Level FlightAware ADS-B
Sat 12:25:11 PM 28.5640 -86.2750 282° West 459 528 36,000  Level FlightAware ADS-B
Sat 12:26:16 PM 28.5960 -86.4600 281° West 458 527 36,000  Level FlightAware ADS-B
Sat 12:26:55 PM 28.6120 -86.5490 282° West 458 527 36,000  Level FlightAware ADS-B
Sat 12:27:35 PM 28.6280 -86.6470 281° West 457 526 36,000  Level FlightAware ADS-B
Sat 12:28:17 PM 28.6450 -86.7450 281° West 456 525 36,000  Level FlightAware ADS-B
Sat 12:29:03 PM 28.6650 -86.8520 282° West 456 525 36,000  Level FlightAware ADS-B
Sat 12:29:47 PM 28.7010 -86.9500 293° West 459 528 36,000  Level FlightAware ADS-B
Sat 12:30:23 PM 28.7330 -87.0310 294° West 459 528 36,000  Level FlightAware ADS-B
Sat 12:31:09 PM 28.7730 -87.1320 294° West 460 529 36,000  Level FlightAware ADS-B
Sat 12:31:51 PM 28.8110 -87.2250 295° West 459 528 36,000  Level FlightAware ADS-B
Sat 12:33:03 PM 28.8660 -87.3590 295° West 459 528 36,000  Level FlightAware ADS-B
Sat 12:33:38 PM 28.8990 -87.4330 297° West 458 527 36,000  Level FlightAware ADS-B
Sat 12:34:19 PM 28.9380 -87.5150 299° West 458 527 36,000  Level FlightAware ADS-B
Sat 12:35:07 PM 28.9980 -87.6380 299° West 458 527 36,000  Level FlightAware ADS-B
Sat 12:35:49 PM 29.0460 -87.7290 301° West 458 527 36,000  Level FlightAware ADS-B
Sat 12:36:32 PM 29.0960 -87.8200 302° West 460 529 36,000  Level FlightAware ADS-B
Sat 12:37:10 PM 29.1390 -87.8990 302° West 459 528 36,000  Level FlightAware ADS-B
Sat 12:37:52 PM 29.1730 -87.9610 302° West 460 529 36,000  Level FlightAware ADS-B
Sat 12:38:35 PM 29.2240 -88.0520 303° West 460 529 36,000  Level FlightAware ADS-B
Sat 12:39:18 PM 29.2870 -88.1610 304° West 463 533 36,000  Level FlightAware ADS-B
Sat 12:39:54 PM 29.3320 -88.2340 305° West 464 534 36,000  Level FlightAware ADS-B
Sat 12:41:06 PM 29.4210 -88.3770 306° West 463 533 36,000  Level FlightAware ADS-B
Sat 12:41:42 PM 29.4670 -88.4490 306° West 462 532 36,000  Level FlightAware ADS-B
Sat 12:42:22 PM 29.5160 -88.5270 306° West 461 531 36,000  Level FlightAware ADS-B
Sat 12:43:04 PM 29.5680 -88.6120 305° West 457 526 36,000  Level FlightAware ADS-B
Sat 12:43:45 PM 29.5980 -88.6810 297° West 450 518 36,000  Level FlightAware ADS-B
Sat 12:44:28 PM 29.6310 -88.7640 295° West 448 516 36,000  Level FlightAware ADS-B
Sat 12:45:38 PM 29.6800 -88.9210 290° West 438 504 36,000  Level FlightAware ADS-B
Sat 12:46:18 PM 29.6950 -89.0410 278° West 435 501 36,000  Level FlightAware ADS-B
Sat 12:47:04 PM 29.7030 -89.1450 275° West 438 504 36,000  Level FlightAware ADS-B
Sat 12:47:46 PM 29.7090 -89.2440 274° West 437 503 36,000  Level FlightAware ADS-B
Sat 12:48:30 PM 29.7150 -89.3470 274° West 437 503 36,000  Level FlightAware ADS-B
Sat 12:49:06 PM 29.7200 -89.4280 274° West 436 502 36,000  Level FlightAware ADS-B
Sat 12:49:52 PM 29.7250 -89.5060 274° West 435 501 36,000  Level FlightAware ADS-B
Sat 12:50:56 PM 29.7610 -89.6460 287° West 441 507 36,000  Level FlightAware ADS-B
Sat 12:51:31 PM 29.7860 -89.7250 290° West 438 504 36,000  Level FlightAware ADS-B
Sat 12:52:18 PM 29.8340 -89.8540 293° West 436 502 36,000  Level FlightAware ADS-B
Sat 12:53:03 PM 29.8520 -89.9540 282° West 426 490 36,000  Level FlightAware ADS-B
Sat 12:53:42 PM 29.8570 -90.0440 274° West 423 487 36,000  Level FlightAware ADS-B
Sat 12:54:22 PM 29.8600 -90.1320 272° West 422 486 36,000  Level FlightAware ADS-B
Sat 12:55:01 PM 29.8620 -90.2030 272° West 424 488 36,000  Level FlightAware ADS-B
Sat 12:55:39 PM 29.8650 -90.2820 273° West 427 491 36,000  Level FlightAware ADS-B
Sat 12:56:24 PM 29.8700 -90.4090 273° West 428 493 36,000  Level FlightAware ADS-B
Sat 12:57:08 PM 29.8730 -90.5090 272° West 429 494 36,000  Level FlightAware ADS-B
Sat 12:57:48 PM 29.8760 -90.6010 272° West 430 495 36,000  Level FlightAware ADS-B
Sat 12:58:26 PM 29.8790 -90.6840 272° West 429 494 36,000  Level FlightAware ADS-B
Sat 12:59:20 PM 29.8830 -90.7820 273° West 429 494 36,000  Level FlightAware ADS-B
Sat 01:00:00 PM 29.8850 -90.8600 272° West 429 494 36,000  Level FlightAware ADS-B
Sat 01:00:53 PM 29.8900 -90.9920 273° West 428 493 36,000  Level FlightAware ADS-B
Sat 01:01:34 PM 29.8920 -91.0710 272° West 428 493 36,000  Level FlightAware ADS-B
Sat 01:02:45 PM 29.8960 -91.2090 272° West 428 493 36,000  Level FlightAware ADS-B
Sat 01:03:24 PM 29.8980 -91.2850 272° West 428 493 36,000  Level FlightAware ADS-B
Sat 01:03:59 PM 29.9000 -91.3530 272° West 428 493 36,000  Level FlightAware ADS-B
Sat 01:04:47 PM 29.9030 -91.4460 272° West 428 493 36,000  Level FlightAware ADS-B
Sat 01:05:34 PM 29.9060 -91.5370 272° West 428 493 36,000  Level FlightAware ADS-B
Sat 01:06:11 PM 29.9080 -91.6090 272° West 428 493 36,000  Level FlightAware ADS-B
Sat 01:06:46 PM 29.9100 -91.6770 272° West 428 493 36,000  Level FlightAware ADS-B
Sat 01:07:35 PM 29.9130 -91.7720 272° West 428 493 36,000  Level FlightAware ADS-B
Sat 01:08:11 PM 29.9150 -91.8420 272° West 428 493 36,000  Level FlightAware ADS-B
Sat 01:09:01 PM 29.9180 -91.9390 272° West 428 493 36,000  Level FlightAware ADS-B
Sat 01:09:41 PM 29.9210 -92.0160 273° West 428 493 36,000  Level FlightAware ADS-B
Sat 01:10:20 PM 29.9230 -92.0920 272° West 428 493 36,000  Level FlightAware ADS-B
Sat 01:12:55 PM 29.9980 -92.6990 278° West 445 512 36,000  Level FlightAware ADS-B
Sat 01:13:27 PM 30.0050 -92.7750 276° West 443 510 36,000  Level FlightAware ADS-B
Sat 01:14:25 PM 30.0140 -92.8960 275° West 442 509 36,000  Level FlightAware ADS-B
Sat 01:15:04 PM 30.0180 -93.0010 273° West 439 505 36,000  Level FlightAware ADS-B
Sat 01:15:48 PM 30.0210 -93.0740 273° West 438 504 36,000  Level FlightAware ADS-B
Sat 01:16:28 PM 30.0230 -93.1540 272° West 438 504 36,000  Level FlightAware ADS-B
Sat 01:17:28 PM 30.0240 -93.2960 271° West 436 502 36,000  Level FlightAware ADS-B
Sat 01:18:07 PM 30.0250 -93.3900 271° West 434 499 36,000  Level FlightAware ADS-B
Sat 01:18:53 PM 30.0230 -93.5320 269° West 434 499 36,000  Level FlightAware ADS-B
Sat 01:19:35 PM 30.0190 -93.6320 267° West 437 503 36,000  Level FlightAware ADS-B
Sat 01:20:14 PM 30.0170 -93.7180 268° West 438 504 36,000  Level FlightAware ADS-B
Sat 01:21:02 PM 30.0130 -93.8350 268° West 438 504 36,000  Level FlightAware ADS-B
Sat 01:21:26 PM 30.0110 -93.8910 268° West 439 505 36,000  Level FlightAware ADS-B
Sat 01:22:11 PM 30.0080 -93.9960 268° West 440 506 36,000  Level FlightAware ADS-B
Sat 01:22:50 PM 30.0050 -94.0660 267° West 428 493 36,000  Level FlightAware ADS-B
Sat 01:23:40 PM 30.0020 -94.1680 268° West 422 486 36,000  Level FlightAware ADS-B
Sat 01:24:23 PM 29.9990 -94.2610 268° West 420 483 36,000  Level FlightAware ADS-B
Sat 01:25:06 PM 29.9950 -94.3610 267° West 418 481 36,000  Level FlightAware ADS-B
Sat 01:25:49 PM 29.9910 -94.4850 268° West 418 481 36,000  Level FlightAware ADS-B
Sat 01:26:31 PM 29.9880 -94.5750 268° West 428 493 36,000  Level FlightAware ADS-B
Sat 01:27:09 PM 29.9810 -94.6670 265° West 444 511 36,000  Level FlightAware ADS-B
Sat 01:27:53 PM 29.9750 -94.7730 266° West 446 513 36,000  Level FlightAware ADS-B
Sat 01:28:35 PM 29.9740 -94.8710 269° West 447 514 36,000  Level FlightAware ADS-B
Sat 01:29:19 PM 29.9720 -94.9780 269° West 446 513 36,000  Level FlightAware ADS-B
Sat 01:30:01 PM 29.9570 -95.0740 260° West 450 518 36,000  Level FlightAware ADS-B
Sat 01:30:41 PM 29.9430 -95.1460 257° West 449 517 36,000  Level FlightAware ADS-B
Sat 01:31:16 PM 29.9330 -95.2180 261° West 449 517 36,000  Level FlightAware ADS-B
Sat 01:32:03 PM 29.9150 -95.3300 260° West 450 518 36,000  Level FlightAware ADS-B
Sat 01:32:41 PM 29.9010 -95.4200 260° West 451 519 36,000  Level FlightAware ADS-B
Sat 01:33:30 PM 29.8780 -95.5660 260° West 452 520 36,000  Level FlightAware ADS-B
Sat 01:34:10 PM 29.8630 -95.6580 259° West 452 520 36,000  Level FlightAware ADS-B
Sat 01:34:52 PM 29.8470 -95.7600 260° West 452 520 36,000  Level FlightAware ADS-B
Sat 01:35:31 PM 29.8360 -95.8330 260° West 452 520 36,000  Level FlightAware ADS-B
Sat 01:36:17 PM 29.8200 -95.9310 259° West 452 520 36,000  Level FlightAware ADS-B
Sat 01:36:56 PM 29.8050 -96.0230 259° West 452 520 36,000  Level FlightAware ADS-B
Sat 01:37:42 PM 29.7840 -96.1620 260° West 452 520 36,000  Level FlightAware ADS-B
Sat 01:38:25 PM 29.7860 -96.2640 271° West 450 518 36,000  Level FlightAware ADS-B
Sat 01:39:05 PM 29.7930 -96.3610 275° West 451 519 36,000  Level FlightAware ADS-B
Sat 01:39:41 PM 29.7980 -96.4340 275° West 452 520 36,000  Level FlightAware ADS-B
Sat 01:40:29 PM 29.8050 -96.5320 275° West 455 524 36,000  Level FlightAware ADS-B
Sat 01:41:11 PM 29.8130 -96.6410 275° West 455 524 36,000 -1,317 Level FlightAware ADS-B
Sat 01:41:51 PM 29.8220 -96.7590 275° West 453 521 34,200 -3,176 Descending FlightAware ADS-B
Sat 01:42:36 PM 29.8300 -96.8690 275° West 460 529 31,500 -3,388 Descending FlightAware ADS-B
Sat 01:43:16 PM 29.8370 -96.9680 275° West 457 526 29,400 -2,500 Descending FlightAware ADS-B
Sat 01:44:00 PM 29.8430 -97.0450 275° West 451 519 28,000 -2,163 Descending FlightAware ADS-B
Sat 01:44:42 PM 29.8490 -97.1410 274° West 443 510 26,300 -2,500 Descending FlightAware ADS-B
Sat 01:45:24 PM 29.8560 -97.2390 275° West 437 503 24,500 -2,634 Descending FlightAware ADS-B
Sat 01:46:04 PM 29.8630 -97.3400 275° West 429 494 22,700 -2,880 Descending FlightAware ADS-B
Sat 01:46:39 PM 29.8700 -97.4390 275° West 420 483 20,900 -2,789 Descending FlightAware ADS-B
Sat 01:47:15 PM 29.8750 -97.5190 274° West 412 474 19,400 -2,444 Descending FlightAware ADS-B
Sat 01:48:00 PM 29.8820 -97.6170 275° West 404 465 17,600 -2,500 Descending FlightAware ADS-B
Sat 01:48:39 PM 29.8870 -97.6990 274° West 398 458 15,900 -2,535 Descending FlightAware ADS-B
Sat 01:49:11 PM 29.8920 -97.7660 275° West 392 451 14,600 -1,850 Descending FlightAware ADS-B
Sat 01:50:26 PM 29.8850 -97.8910 266° West 367 422 12,600 -1,790 Descending FlightAware ADS-B
Sat 01:51:15 PM 29.8490 -97.9770 244° Southwest 356 410 10,900 -1,806 Descending FlightAware ADS-B
Sat 01:51:59 PM 29.8100 -98.0700 244° Southwest 324 373 9,800 -1,167 Descending FlightAware ADS-B
Sat 01:52:27 PM 29.7920 -98.1130 244° Southwest 305 351 9,500 -600 Descending FlightAware ADS-B
Sat 01:52:39 PM 29.7840 -98.1300 242° Southwest 298 343 9,400 -900 Descending FlightAware ADS-B
Sat 01:53:07 PM 29.7680 -98.1690 245° Southwest 288 331 8,900 -1,245 Descending FlightAware ADS-B
Sat 01:53:32 PM 29.7530 -98.2030 243° Southwest 286 329 8,300 -1,500 Descending FlightAware ADS-B
Sat 01:53:59 PM 29.7380 -98.2400 245° Southwest 289 333 7,600 -1,615 Descending FlightAware ADS-B
Sat 01:54:24 PM 29.7230 -98.2760 244° Southwest 291 335 6,900 -1,393 Descending FlightAware ADS-B
Sat 01:54:55 PM 29.7050 -98.3170 243° Southwest 287 330 6,300 -1,154 Descending FlightAware ADS-B
Sat 01:55:16 PM 29.6950 -98.3470 249° West 283 326 5,900 -727 Descending FlightAware ADS-B
Sat 01:55:28 PM 29.6940 -98.3570 263° West 280 322 5,900 140 Level FlightAware ADS-B
Sat 01:55:59 PM 29.6930 -98.4070 269° West 267 307 6,000 -115 Climbing FlightAware ADS-B
Sat 01:56:20 PM 29.6950 -98.4340 275° West 258 297 5,800 -563 Descending FlightAware ADS-B
Sat 01:56:31 PM 29.6960 -98.4440 277° West 255 293 5,700 -778 Descending FlightAware ADS-B
Sat 01:57:14 PM 29.7010 -98.4870 278° West 249 287 5,100 -507 Descending FlightAware ADS-B
Sat 01:57:42 PM 29.7040 -98.5180 276° West 249 287 5,100 -981 Level FlightAware ADS-B
Sat 01:58:58 PM 29.6500 -98.6119 276° West 217 250 3,400 -1,030 Descending Houston Center
Sat 01:59:56 PM 29.6153 -98.5803 142° Southeast 171 197 2,800 -677 Descending Houston Center
Sat 02:01:02 PM 29.5819 -98.5350 130° Southeast 159 183 2,000 -787 Descending Houston Center
Sat 02:01:58 PM 29.5558 -98.5031 133° Southeast 153 176 1,200 -857 Descending Houston Center
Sat 02:04:00 PM 29.5340 -98.4691 126° Southeast  Level Estimated
Sat 02:11:00 PM 29.5340 -98.4691 128° Southeast  Level Estimated

Login

Don't have an account? Register now (free) for customized features, flight alerts, and more!